Thunder radar more information blitzortung!


Radar de pluja more information rain snow radar


Visita la nostra xarxa de llocs de meteo:

Template documentation
and downloads

And another site



No particular awareness of the weather is required.    There are no Weather-warnings

Pagina Historial Weather Underground text

Diari Resum Setembre 10, 2017 Unitats:  Mètric    Imperial   Tant
« Previous Dia
SegĂźent Dia »
Diari Setmana Mensual Anual Personalitzada
  Maxima: Minima: Media:
Temperatura: -17.8 °C -11.3 °C -6.4 °C
Punt de rosada: -17.8 °C -15.3 °C -13.5 °C
Humitat: Humidity % 27 % 46 %
Wind Speed: 0 km/h 0 km/h 11.9 km/h
RĂ fegues de vent: 0 km/h - -
Vent:- - South
Pression baro: 0 hPa 33992.1 hPa -
Precipitacions: 0 mm    
Historical Graphs
 
 
Dades de taula per Setembre 10, 2017
Temps Temperatura Punt de rosada Pression baro Vent Wind Speed RĂ fegues de vent Humitat Rainfall Rate (Hourly)
-17.8 °C -17.8 °C 0 hPa Calm     Humidity % 0 mm
00:04 -9.6 °C -11.2 °C 34029.3 hPa East 6 km/h 6 km/h 83 % 0 mm
00:05 -10.9 °C -13.4 °C 34029.3 hPa Calm   2.6 km/h 74 % 0 mm
00:09 -9.6 °C -11.3 °C 33992.1 hPa East 4.2 km/h 4.2 km/h 82 % 0 mm
00:14 -9.7 °C -11.3 °C 33992.1 hPa Calm     82 % 0 mm
00:15 -11.1 °C -13.4 °C 33992.1 hPa SW 5.1 km/h 5.1 km/h 75 % 0 mm
00:19 -9.7 °C -11.3 °C 33992.1 hPa Calm     82 % 0 mm
00:25 -11.2 °C -13.6 °C 34029.3 hPa WSW 5.1 km/h 5.1 km/h 75 % 0 mm
00:35 -11.1 °C -13.5 °C 34029.3 hPa West 2.6 km/h 7.7 km/h 75 % 0 mm
00:45 -10.9 °C -13.4 °C 34029.3 hPa NW 2.6 km/h 5.1 km/h 74 % 0 mm
00:55 -10.9 °C -13.5 °C 34029.3 hPa North 5.1 km/h 7.7 km/h 73 % 0 mm
01:05 -10.9 °C -13.5 °C 34029.3 hPa NW 2.6 km/h 7.7 km/h 73 % 0 mm
01:15 -10.9 °C -13.7 °C 34029.3 hPa Calm   5.1 km/h 72 % 0 mm
01:25 -11.1 °C -13.7 °C 34029.3 hPa Calm   2.6 km/h 73 % 0 mm
01:35 -11.2 °C -13.8 °C 34029.3 hPa Calm   5.1 km/h 73 % 0 mm
01:45 -11.2 °C -13.8 °C 34029.3 hPa Calm     73 % 0 mm
01:55 -11.2 °C -13.7 °C 34063.2 hPa NNW 2.6 km/h 7.7 km/h 74 % 0 mm
02:05 -11.3 °C -13.8 °C 34063.2 hPa NNW 2.6 km/h 7.7 km/h 74 % 0 mm
02:15 -11.3 °C -13.8 °C 34063.2 hPa NW 2.6 km/h 5.1 km/h 74 % 0 mm
02:25 -11.3 °C -13.8 °C 34063.2 hPa NE 2.6 km/h 7.7 km/h 74 % 0 mm
02:35 -11.3 °C -13.8 °C 34063.2 hPa NE 2.6 km/h 5.1 km/h 74 % 0 mm
02:45 -11.3 °C -13.9 °C 34063.2 hPa NW 2.6 km/h 5.1 km/h 73 % 0 mm
02:55 -11.2 °C -13.8 °C 34063.2 hPa WSW 7.7 km/h 10.3 km/h 73 % 0 mm
03:05 -11.2 °C -13.8 °C 34063.2 hPa WSW 2.6 km/h 5.1 km/h 73 % 0 mm
03:15 -10.9 °C -13.6 °C 34063.2 hPa WSW 2.6 km/h 5.1 km/h 73 % 0 mm
03:25 -10.7 °C -13.4 °C 34063.2 hPa WSW 5.1 km/h 10.3 km/h 72 % 0 mm
03:35 -10.6 °C -13.4 °C 34063.2 hPa WSW 2.6 km/h 5.1 km/h 71 % 0 mm
03:45 -10 °C -13 °C 34063.2 hPa SSW 2.6 km/h 5.1 km/h 70 % 0 mm
03:55 -9.7 °C -12.9 °C 34063.2 hPa ENE 5.1 km/h 5.1 km/h 68 % 0 mm
04:05 -9.5 °C -12.7 °C 34063.2 hPa Calm   7.7 km/h 68 % 0 mm
04:15 -9.4 °C -12.9 °C 34063.2 hPa NNE 2.6 km/h 7.7 km/h 66 % 0 mm
04:25 -8.9 °C -12.4 °C 34063.2 hPa NE 2.6 km/h 5.1 km/h 66 % 0 mm
04:35 -9.2 °C -12.9 °C 34063.2 hPa NE 7.7 km/h 7.7 km/h 65 % 0 mm
04:45 -8.9 °C -12.6 °C 34063.2 hPa NE 2.6 km/h 7.7 km/h 65 % 0 mm
04:55 -8.8 °C -12.4 °C 34063.2 hPa NE 7.7 km/h 10.3 km/h 65 % 0 mm
09:54 -8.8 °C -12.4 °C 34063.2 hPa ENE 6 km/h 6.8 km/h 65 % 0 mm
09:59 -9.1 °C -12.8 °C 34063.2 hPa NNE 11.9 km/h 11.9 km/h 64 % 0 mm
10:04 -8.8 °C -12.7 °C 34063.2 hPa NNE 11.9 km/h 11.9 km/h 63 % 0 mm
10:09 -8.8 °C -12.7 °C 34097 hPa NNW 11.9 km/h 11.9 km/h 63 % 0 mm
10:14 -8.5 °C -12.3 °C 34097 hPa NE 8 km/h 8 km/h 64 % 0 mm
10:19 -8.3 °C -12.2 °C 34097 hPa NE 9 km/h 9 km/h 63 % 0 mm
10:24 -8.3 °C -12.3 °C 34097 hPa North 6 km/h 6 km/h 62 % 0 mm
10:29 -8.3 °C -12.6 °C 34097 hPa ENE 11.9 km/h 11.9 km/h 61 % 0 mm
10:34 -7.9 °C -12.1 °C 34097 hPa SW 6.3 km/h 6.3 km/h 62 % 0 mm
10:39 -7.7 °C -12 °C 34097 hPa NE 6.8 km/h 6.8 km/h 61 % 0 mm
10:44 -7.7 °C -12.1 °C 34097 hPa ENE 9 km/h 9 km/h 60 % 0 mm
10:49 -7.8 °C -12.2 °C 34097 hPa East 11.9 km/h 11.9 km/h 60 % 0 mm
10:54 -7.9 °C -12.4 °C 34097 hPa East 15 km/h 15 km/h 59 % 0 mm
10:59 -7.7 °C -12.3 °C 34097 hPa ESE 11.9 km/h 11.9 km/h 58 % 0 mm
11:04 -7.6 °C -12 °C 34097 hPa NNE 9 km/h 9 km/h 60 % 0 mm
11:09 -7.4 °C -11.9 °C 34097 hPa ENE 9 km/h 9 km/h 59 % 0 mm
11:14 -7.1 °C -12 °C 34097 hPa East 9 km/h 9 km/h 57 % 0 mm
11:19 -7 °C -11.8 °C 34097 hPa NE 9 km/h 9 km/h 57 % 0 mm
11:24 -7 °C -11.8 °C 34097 hPa East 11.9 km/h 11.9 km/h 57 % 0 mm
11:29 -6.8 °C -11.8 °C 34097 hPa North 9 km/h 9 km/h 56 % 0 mm
11:34 -6.6 °C -12.1 °C 34097 hPa ESE 9 km/h 9 km/h 53 % 0 mm
11:39 -6.6 °C -12.1 °C 34097 hPa East 14.5 km/h 14.5 km/h 53 % 0 mm
11:44 -6.6 °C -12.1 °C 34097 hPa ESE 15 km/h 15 km/h 53 % 0 mm
11:49 -6.6 °C -12.2 °C 34097 hPa ESE 11.9 km/h 12.2 km/h 52 % 0 mm
11:54 -6.4 °C -11.7 °C 34097 hPa NNE 9 km/h 9 km/h 54 % 0 mm
11:59 -6.2 °C -11.7 °C 34097 hPa ESE 9 km/h 9 km/h 53 % 0 mm
12:04 -5.9 °C -11.6 °C 34097 hPa ESE 11.9 km/h 11.9 km/h 52 % 0 mm
12:09 -5.9 °C -11.8 °C 34097 hPa ESE 10.3 km/h 10.3 km/h 51 % 0 mm
12:14 -6.1 °C -11.8 °C 34097 hPa ENE 10.3 km/h 10.3 km/h 52 % 0 mm
12:19 -5.6 °C -11.5 °C 34097 hPa WSW 9 km/h 9 km/h 51 % 0 mm
12:24 -5.4 °C -11.4 °C 34097 hPa NW 15 km/h 15 km/h 50 % 0 mm
12:29 -5.3 °C -11.7 °C 34097 hPa SW 29.8 km/h 29.8 km/h 48 % 0 mm
12:34 -5.1 °C -11.7 °C 34097 hPa WSW 17.4 km/h 17.4 km/h 47 % 0 mm
12:39 -5.3 °C -12.3 °C 34097 hPa WNW 20.9 km/h 20.9 km/h 45 % 0 mm
12:44 -5.1 °C -12.1 °C 34097 hPa WSW 20.9 km/h 20.9 km/h 45 % 0 mm
12:49 -5 °C -12.2 °C 34097 hPa SSW 15 km/h 15 km/h 44 % 0 mm
12:54 -4.9 °C -12.3 °C 34097 hPa WNW 16.6 km/h 16.6 km/h 43 % 0 mm
12:59 -4.8 °C -12.2 °C 34097 hPa WSW 16.6 km/h 16.6 km/h 43 % 0 mm
13:04 -4.8 °C -12.8 °C 34097 hPa West 20.9 km/h 20.9 km/h 40 % 0 mm
13:09 -4.7 °C -12.7 °C 34063.2 hPa West 20.9 km/h 20.9 km/h 40 % 0 mm
13:14 -4.5 °C -12.3 °C 34063.2 hPa WSW 11.1 km/h 11.1 km/h 41 % 0 mm
13:19 -4.4 °C -12.2 °C 34063.2 hPa West 15 km/h 17.9 km/h 41 % 0 mm
13:24 -4.5 °C -12.5 °C 34063.2 hPa West 15.3 km/h 15.3 km/h 40 % 0 mm
13:29 -4.3 °C -12.6 °C 34063.2 hPa SSW 26.9 km/h 26.9 km/h 39 % 0 mm
13:34 -4.4 °C -12.8 °C 34063.2 hPa WNW 15 km/h 15 km/h 38 % 0 mm
13:39 -4.3 °C -13 °C 34029.3 hPa SSW 26.9 km/h 26.9 km/h 37 % 0 mm
13:44 -4.2 °C -12.7 °C 34029.3 hPa North 10.3 km/h 10.3 km/h 38 % 0 mm
13:49 -4.1 °C -12.8 °C 34029.3 hPa WNW 17.9 km/h 17.9 km/h 37 % 0 mm
13:54 -4.1 °C -12.8 °C 34063.2 hPa WNW 12.7 km/h 14 km/h 37 % 0 mm
13:59 -4 °C -12.7 °C 34063.2 hPa NNE 15 km/h 15 km/h 37 % 0 mm
14:04 -3.9 °C -13.3 °C 34063.2 hPa WSW 17.9 km/h 17.9 km/h 34 % 0 mm
14:09 -4.1 °C -13.7 °C 34063.2 hPa SSW 20.9 km/h 20.9 km/h 33 % 0 mm
14:14 -3.9 °C -13.6 °C 34063.2 hPa WNW 11.9 km/h 11.9 km/h 33 % 0 mm
14:19 -4 °C -13.9 °C 34063.2 hPa SSW 23.8 km/h 23.8 km/h 32 % 0 mm
14:24 -3.8 °C -13.8 °C 34063.2 hPa West 23.8 km/h 23.8 km/h 32 % 0 mm
14:25 -3.8 °C -13.8 °C 34063.2 hPa West 23.8 km/h 23.8 km/h 32 % 0 mm
14:30 -3.9 °C -13.8 °C 34063.2 hPa NW 20.9 km/h 20.9 km/h 32 % 0 mm
14:35 -3.8 °C -13.9 °C 34063.2 hPa SSW 15.3 km/h 15.3 km/h 31 % 0 mm
14:40 -3.7 °C -14.1 °C 34063.2 hPa West 15 km/h 15 km/h 30 % 0 mm
14:45 -3.6 °C -14.1 °C 34063.2 hPa WNW 22 km/h 22 km/h 30 % 0 mm
14:50 -3.7 °C -14.1 °C 34063.2 hPa WSW 19.6 km/h 19.6 km/h 30 % 0 mm
14:55 -3.5 °C -14 °C 34063.2 hPa NW 15 km/h 15 km/h 30 % 0 mm
15:00 -3.6 °C -14.3 °C 34063.2 hPa South 6 km/h 6.8 km/h 29 % 0 mm
15:05 -3.4 °C -13.9 °C 34063.2 hPa West 9 km/h 9 km/h 30 % 0 mm
15:10 -3.2 °C -13.8 °C 34063.2 hPa WNW 18.3 km/h 18.3 km/h 30 % 0 mm
15:15 -3.4 °C -13.9 °C 34063.2 hPa WSW 23.8 km/h 23.8 km/h 30 % 0 mm
15:20 -3.6 °C -14.3 °C 34063.2 hPa WSW 26.9 km/h 26.9 km/h 29 % 0 mm
15:22 -3.7 °C -14.4 °C 34029.3 hPa WSW 15 km/h 15.3 km/h 29 % 0 mm
15:27 -3.4 °C -14.2 °C 34029.3 hPa WSW 20.9 km/h 20.9 km/h 29 % 0 mm
15:32 -3.3 °C -14.1 °C 34029.3 hPa WSW 17.9 km/h 17.9 km/h 29 % 0 mm
15:37 -3.2 °C -14 °C 34063.2 hPa WNW 26.9 km/h 26.9 km/h 29 % 0 mm
15:42 -3.2 °C -14 °C 34063.2 hPa WNW 20.9 km/h 20.9 km/h 29 % 0 mm
15:47 -3.1 °C -13.9 °C 34063.2 hPa WSW 26.9 km/h 26.9 km/h 29 % 0 mm
15:52 -3 °C -13.8 °C 34063.2 hPa West 20.9 km/h 20.9 km/h 29 % 0 mm
15:57 -2.8 °C -13.7 °C 34063.2 hPa WNW 11.9 km/h 11.9 km/h 29 % 0 mm
16:02 -2.9 °C -14.1 °C 34063.2 hPa SW 23.8 km/h 23.8 km/h 28 % 0 mm
16:07 -3.1 °C -14.2 °C 34063.2 hPa NNW 26.9 km/h 26.9 km/h 28 % 0 mm
16:12 -3.1 °C -14.2 °C 34063.2 hPa NNW 11.9 km/h 11.9 km/h 28 % 0 mm
16:17 -2.8 °C -14 °C 34063.2 hPa West 11.9 km/h 11.9 km/h 28 % 0 mm
16:22 -2.7 °C -13.9 °C 34063.2 hPa SW 17.9 km/h 17.9 km/h 28 % 0 mm
16:27 -2.7 °C -13.8 °C 34063.2 hPa WSW 23.8 km/h 23.8 km/h 28 % 0 mm
16:32 -2.7 °C -13.9 °C 34063.2 hPa WNW 20.3 km/h 20.3 km/h 28 % 0 mm
16:37 -2.7 °C -13.9 °C 34097 hPa WSW 23.8 km/h 23.8 km/h 28 % 0 mm
16:42 -2.8 °C -13.9 °C 34097 hPa SW 20.9 km/h 20.9 km/h 28 % 0 mm
16:47 -2.8 °C -13.9 °C 34097 hPa West 15 km/h 17.4 km/h 28 % 0 mm
16:52 -2.8 °C -14 °C 34029.3 hPa NW 26.9 km/h 26.9 km/h 28 % 0 mm
16:57 -2.8 °C -14 °C 34029.3 hPa WSW 20.9 km/h 20.9 km/h 28 % 0 mm
17:02 -2.7 °C -13.9 °C 34029.3 hPa WSW 15 km/h 15 km/h 28 % 0 mm
17:07 -2.8 °C -13.9 °C 34063.2 hPa SSW 23.8 km/h 23.8 km/h 28 % 0 mm
17:12 -2.7 °C -13.8 °C 34063.2 hPa West 15 km/h 15 km/h 28 % 0 mm
17:17 -3 °C -14.1 °C 34063.2 hPa West 11.1 km/h 11.1 km/h 28 % 0 mm
17:22 -2.8 °C -13.9 °C 34063.2 hPa NNW 19.2 km/h 19.2 km/h 28 % 0 mm
17:27 -2.8 °C -14 °C 34063.2 hPa SSW 20.9 km/h 20.9 km/h 28 % 0 mm
17:32 -2.9 °C -14 °C 34063.2 hPa WSW 17.9 km/h 17.9 km/h 28 % 0 mm
17:37 -3 °C -14.1 °C 34063.2 hPa SW 20.9 km/h 20.9 km/h 28 % 0 mm
17:42 -3 °C -14.1 °C 34063.2 hPa SW 25.1 km/h 25.1 km/h 28 % 0 mm
17:47 -3 °C -14.1 °C 34063.2 hPa SW 23.8 km/h 23.8 km/h 28 % 0 mm
17:52 -3.1 °C -14.2 °C 34063.2 hPa SW 20.9 km/h 20.9 km/h 28 % 0 mm
17:57 -3.2 °C -14.3 °C 34063.2 hPa West 15 km/h 15 km/h 28 % 0 mm
18:02 -3.1 °C -14.2 °C 34063.2 hPa SW 23.8 km/h 23.8 km/h 28 % 0 mm
18:07 -3.2 °C -14.3 °C 34029.3 hPa West 23.8 km/h 23.8 km/h 28 % 0 mm
18:12 -3.2 °C -14.3 °C 34029.3 hPa WSW 20.9 km/h 20.9 km/h 28 % 0 mm
18:17 -3.3 °C -14.7 °C 34029.3 hPa SSW 32.8 km/h 32.8 km/h 27 % 0 mm
18:22 -3.3 °C -14.7 °C 34063.2 hPa WSW 23.8 km/h 23.8 km/h 27 % 0 mm
18:27 -3.3 °C -14.7 °C 34063.2 hPa West 15 km/h 15 km/h 27 % 0 mm
18:32 -3.3 °C -14.7 °C 34063.2 hPa WSW 26.9 km/h 26.9 km/h 27 % 0 mm
18:37 -3.4 °C -14.8 °C 34063.2 hPa South 27.7 km/h 27.7 km/h 27 % 0 mm
18:42 -3.5 °C -14.6 °C 34063.2 hPa West 20.9 km/h 20.9 km/h 28 % 0 mm
18:47 -3.4 °C -14.4 °C 34063.2 hPa WSW 20.9 km/h 20.9 km/h 28 % 0 mm
18:52 -3.4 °C -14.5 °C 34063.2 hPa WSW 26.9 km/h 26.9 km/h 28 % 0 mm
18:57 -3.6 °C -14.6 °C 34063.2 hPa SW 20.9 km/h 20.9 km/h 28 % 0 mm
19:02 -3.7 °C -14.8 °C 34063.2 hPa WSW 29.8 km/h 29.8 km/h 28 % 0 mm
19:07 -3.9 °C -14.7 °C 34063.2 hPa WNW 15 km/h 15 km/h 29 % 0 mm
19:10 -7.6 °C -13.3 °C 34198.6 hPa Calm     51 % 0 mm
19:12 -4 °C -14.7 °C 34063.2 hPa West 17.9 km/h 17.9 km/h 29 % 0 mm
19:17 -4.1 °C -14.8 °C 34063.2 hPa West 15 km/h 15 km/h 29 % 0 mm
19:20 -7.6 °C -13.3 °C 34198.6 hPa NNE 2.6 km/h 2.6 km/h 51 % 0 mm
19:22 -4.2 °C -14.8 °C 34063.2 hPa WSW 19.6 km/h 19.6 km/h 29 % 0 mm
19:27 -4.3 °C -14.9 °C 34063.2 hPa West 20.9 km/h 20.9 km/h 29 % 0 mm
19:30 -7.7 °C -13.4 °C 34164.7 hPa West 2.6 km/h 5.1 km/h 51 % 0 mm
19:32 -4.4 °C -15.1 °C 34063.2 hPa West 15 km/h 15 km/h 29 % 0 mm
19:37 -4.6 °C -15.2 °C 34097 hPa WSW 11.9 km/h 11.9 km/h 29 % 0 mm
19:40 -7.7 °C -13.4 °C 34198.6 hPa West 5.1 km/h 5.1 km/h 51 % 0 mm
19:42 -4.7 °C -15 °C 34097 hPa SW 15 km/h 15 km/h 30 % 0 mm
19:47 -4.7 °C -15.1 °C 34097 hPa WSW 14.5 km/h 14.5 km/h 30 % 0 mm
19:49 -4.8 °C -15.1 °C 34097 hPa WSW 11.9 km/h 11.9 km/h 30 % 0 mm
19:50 -7.9 °C -13.8 °C 34198.6 hPa WSW 2.6 km/h 5.1 km/h 50 % 0 mm
19:54 -4.9 °C -15.2 °C 34097 hPa WSW 11.9 km/h 11.9 km/h 30 % 0 mm
19:59 -5 °C -15.3 °C 34097 hPa WNW 26.9 km/h 26.9 km/h 30 % 0 mm
20:00 -7.9 °C -13.8 °C 34198.6 hPa WSW 2.6 km/h 5.1 km/h 50 % 0 mm
20:04 -5.1 °C -15.1 °C 34097 hPa WSW 9 km/h 9 km/h 31 % 0 mm
20:09 -5.2 °C -15.2 °C 34130.9 hPa West 15 km/h 15 km/h 31 % 0 mm
20:10 -8 °C -13.8 °C 34164.7 hPa WSW 2.6 km/h 5.1 km/h 50 % 0 mm
20:14 -5.2 °C -15.2 °C 34130.9 hPa WSW 9 km/h 9 km/h 31 % 0 mm
20:19 -5.3 °C -15 °C 34130.9 hPa WSW 9.3 km/h 9.3 km/h 32 % 0 mm
20:20 -8.2 °C -13.8 °C 34164.7 hPa Calm   5.1 km/h 51 % 0 mm
20:24 -5.3 °C -15.1 °C 34130.9 hPa SW 4.2 km/h   32 % 0 mm
20:29 -5.4 °C -15.2 °C 34130.9 hPa WSW 3.1 km/h 3.1 km/h 32 % 0 mm
20:30 -8.2 °C -13.9 °C 34198.6 hPa SW 2.6 km/h 5.1 km/h 51 % 0 mm
20:34 -5.5 °C -15.2 °C 34130.9 hPa NE 9 km/h 9 km/h 32 % 0 mm
20:39 -5.8 °C -14.7 °C 34097 hPa ESE 9 km/h 9 km/h 35 % 0 mm
20:40 -8.3 °C -14 °C 34198.6 hPa WSW 2.6 km/h 5.1 km/h 51 % 0 mm
20:44 -6 °C -14.5 °C 34097 hPa NE 9 km/h 9 km/h 37 % 0 mm
20:49 -6.2 °C -14.2 °C 34097 hPa East 6.3 km/h 6.3 km/h 39 % 0 mm
20:50 -8.4 °C -13.9 °C 34198.6 hPa Calm   5.1 km/h 52 % 0 mm
20:54 -6.2 °C -14.1 °C 34130.9 hPa ESE 8 km/h 8 km/h 40 % 0 mm
20:59 -6.4 °C -13.8 °C 34130.9 hPa ESE 9 km/h 9 km/h 42 % 0 mm
21:00 -8.4 °C -13.9 °C 34198.6 hPa WSW 2.6 km/h 5.1 km/h 52 % 0 mm
21:04 -6.4 °C -13.7 °C 34130.9 hPa NE 5.6 km/h   43 % 0 mm
21:09 -6.6 °C -13.7 °C 34164.7 hPa NNE 11.1 km/h 11.1 km/h 44 % 0 mm
21:10 -8.3 °C -13.9 °C 34198.6 hPa West 5.1 km/h 10.3 km/h 51 % 0 mm
21:14 -6.7 °C -13.6 °C 34164.7 hPa ENE 15 km/h 15 km/h 45 % 0 mm
21:19 -6.8 °C -13.4 °C 34164.7 hPa NNE 9 km/h 9 km/h 46 % 0 mm
21:20 -8.1 °C -13.8 °C 34198.6 hPa West 7.7 km/h 12.9 km/h 51 % 0 mm
21:24 -6.9 °C -13.3 °C 34164.7 hPa ENE 5.6 km/h 5.6 km/h 47 % 0 mm
21:29 -6.9 °C -13.2 °C 34164.7 hPa NE 9 km/h 9 km/h 48 % 0 mm
21:30 -8 °C -13.8 °C 34164.7 hPa West 7.7 km/h 12.9 km/h 50 % 0 mm
21:34 -7 °C -13.3 °C 34164.7 hPa ENE 11.9 km/h 11.9 km/h 48 % 0 mm
21:36 -7 °C -13.1 °C 34198.6 hPa NE 15.3 km/h 15.3 km/h 49 % 0 mm
21:40 -8 °C -13.8 °C 34164.7 hPa West 12.9 km/h 12.9 km/h 50 % 0 mm
21:41 -7.1 °C -13.2 °C 34198.6 hPa NNE 9 km/h 9 km/h 49 % 0 mm
21:46 -7.1 °C -13.2 °C 34198.6 hPa NNW 9 km/h 9 km/h 49 % 0 mm
21:50 -8 °C -13.8 °C 34164.7 hPa West 7.7 km/h 12.9 km/h 50 % 0 mm
21:51 -7.1 °C -13 °C 34198.6 hPa East 6 km/h 6 km/h 50 % 0 mm
22:00 -7.9 °C -13.8 °C 34164.7 hPa WSW 7.7 km/h 10.3 km/h 50 % 0 mm
22:01 -7.1 °C -13.1 °C 34198.6 hPa ENE 9 km/h 9 km/h 50 % 0 mm
22:06 -7.2 °C -13.1 °C 34198.6 hPa ENE 4.2 km/h 4.2 km/h 50 % 0 mm
22:10 -7.8 °C -13.9 °C 34164.7 hPa West 15.6 km/h 15.6 km/h 49 % 0 mm
22:11 -7.2 °C -13 °C 34198.6 hPa ESE 11.9 km/h 11.9 km/h 51 % 0 mm
22:16 -7.2 °C -13 °C 34198.6 hPa ESE 6 km/h 6 km/h 51 % 0 mm
22:20 -7.8 °C -13.9 °C 34164.7 hPa West 7.7 km/h 7.7 km/h 49 % 0 mm
22:21 -7.3 °C -13.1 °C 34198.6 hPa WSW 3.1 km/h 3.1 km/h 51 % 0 mm
22:26 -7.4 °C -13 °C 34198.6 hPa NNE 9.3 km/h 9.3 km/h 52 % 0 mm
22:30 -7.9 °C -13.9 °C 34164.7 hPa West 7.7 km/h 15.6 km/h 49 % 0 mm
22:31 -7.4 °C -13 °C 34198.6 hPa NNE 9 km/h 9 km/h 52 % 0 mm
22:36 -7.4 °C -13 °C 34198.6 hPa NNE 9 km/h 9 km/h 52 % 0 mm
22:40 -7.9 °C -14 °C 34198.6 hPa West 5.1 km/h 10.3 km/h 49 % 0 mm
22:41 -7.4 °C -13 °C 34198.6 hPa NNE 9 km/h 9 km/h 52 % 0 mm
22:46 -7.4 °C -13 °C 34198.6 hPa NNE 9 km/h 9 km/h 52 % 0 mm
22:50 -8 °C -14 °C 34198.6 hPa WSW 12.9 km/h 12.9 km/h 49 % 0 mm
22:51 -7.4 °C -13 °C 34198.6 hPa NNE 9 km/h 9 km/h 52 % 0 mm
22:56 -7.4 °C -13 °C 34198.6 hPa NNE 9 km/h 9 km/h 52 % 0 mm
23:00 -8.1 °C -14.1 °C 34164.7 hPa WSW 7.7 km/h 12.9 km/h 49 % 0 mm
23:01 -7.4 °C -13 °C 34198.6 hPa NNE 9 km/h 9 km/h 52 % 0 mm
23:06 -7.4 °C -13 °C 34198.6 hPa NNE 9 km/h 9 km/h 52 % 0 mm
23:10 -8.1 °C -14.1 °C 34164.7 hPa WSW 7.7 km/h 7.7 km/h 49 % 0 mm
23:11 -7.4 °C -13 °C 34198.6 hPa NNE 9 km/h 9 km/h 52 % 0 mm
23:16 -7.4 °C -13 °C 34198.6 hPa NNE 9 km/h 9 km/h 52 % 0 mm
23:20 -8.1 °C -14.1 °C 34164.7 hPa WSW 7.7 km/h 10.3 km/h 49 % 0 mm
23:21 -7.4 °C -13 °C 34198.6 hPa NNE 9 km/h 9 km/h 52 % 0 mm
23:26 -7.4 °C -13 °C 34198.6 hPa NNE 9 km/h 9 km/h 52 % 0 mm
23:30 -8.2 °C -14.2 °C 34164.7 hPa WSW 5.1 km/h 10.3 km/h 49 % 0 mm
23:36 -7.4 °C -13 °C 34198.6 hPa NNE 9 km/h 9 km/h 52 % 0 mm
23:40 -8.2 °C -14.2 °C 34164.7 hPa West 2.6 km/h 5.1 km/h 49 % 0 mm
23:41 -7.4 °C -13 °C 34198.6 hPa NNE 9 km/h 9 km/h 52 % 0 mm
23:46 -7.4 °C -13 °C 34198.6 hPa NNE 9 km/h 9 km/h 52 % 0 mm
23:50 -8.3 °C -14.2 °C 34164.7 hPa West 2.6 km/h 5.1 km/h 50 % 0 mm
23:51 -7.4 °C -13 °C 34198.6 hPa NNE 9 km/h 9 km/h 52 % 0 mm
23:56 -7.4 °C -13 °C 34198.6 hPa NNE 9 km/h 9 km/h 52 % 0 mm
Meteo Sesrovires
Elogis d' Weather Underground - 1.5 mb

Guio original per  Jim McMurry - jmcmurry@mwt.net Adaptat per a la plantilla per  Wim van der Kuil - Leuven-Template.eu

Trobareu la nostra informacio del temps tambe a:

Weather Underground

AWEKAS